createdAt,value
2023-01-12T00:00:14.717Z,6.05
2023-01-12T00:03:43.169Z,6.02
2023-01-12T00:06:50.034Z,6.01
2023-01-12T00:09:56.725Z,5.99
2023-01-12T00:13:03.610Z,5.98
2023-01-12T00:16:34.587Z,5.97
2023-01-12T00:19:41.293Z,5.95
2023-01-12T00:22:50.752Z,5.91
2023-01-12T00:25:57.574Z,5.87
2023-01-12T00:29:04.345Z,5.85
2023-01-12T00:32:15.525Z,5.83
2023-01-12T00:35:22.438Z,5.81
2023-01-12T00:38:29.286Z,5.78
2023-01-12T00:41:54.869Z,5.75
2023-01-12T00:45:18.855Z,5.72
2023-01-12T00:48:25.746Z,5.72
2023-01-12T00:51:32.604Z,5.73
2023-01-12T00:54:39.878Z,5.76
2023-01-12T00:57:46.708Z,5.77
2023-01-12T01:00:53.508Z,5.79
2023-01-12T01:04:00.407Z,5.79
2023-01-12T01:07:07.558Z,5.76
2023-01-12T01:10:15.223Z,5.72
2023-01-12T01:13:22.046Z,5.68
2023-01-12T01:16:29.682Z,5.64
2023-01-12T01:19:36.964Z,5.58
2023-01-12T01:22:43.871Z,5.52
2023-01-12T01:25:50.691Z,5.47
2023-01-12T01:28:58.098Z,5.42
2023-01-12T01:32:04.934Z,5.36
2023-01-12T01:35:12.286Z,5.31
2023-01-12T01:38:18.968Z,5.27
2023-01-12T01:41:28.283Z,5.22
2023-01-12T01:44:54.294Z,5.18
2023-01-12T01:48:04.221Z,5.13
2023-01-12T01:51:15.574Z,5.11
2023-01-12T01:54:22.948Z,5.08
2023-01-12T01:57:37.251Z,5.07
2023-01-12T02:00:45.330Z,5.05
2023-01-12T02:03:53.547Z,5.05
2023-01-12T02:07:01.816Z,5.05
2023-01-12T02:10:09.937Z,5.04
2023-01-12T02:13:34.816Z,5.02
2023-01-12T02:16:49.908Z,5.00
2023-01-12T02:20:20.524Z,4.97
2023-01-12T02:24:00.218Z,4.94
2023-01-12T02:27:22.980Z,4.93
2023-01-12T02:30:54.501Z,4.89
2023-01-12T02:34:12.708Z,4.86
2023-01-12T02:37:30.093Z,4.82
2023-01-12T02:40:45.364Z,4.79
2023-01-12T02:43:52.734Z,4.76
2023-01-12T02:47:01.986Z,4.75
2023-01-12T02:50:14.021Z,4.77
2023-01-12T02:53:26.479Z,4.80
2023-01-12T02:56:37.432Z,4.86
2023-01-12T02:59:46.759Z,4.92
2023-01-12T03:02:53.702Z,4.95
2023-01-12T03:06:08.873Z,4.98
2023-01-12T03:09:18.850Z,4.98
2023-01-12T03:12:28.929Z,4.97
2023-01-12T03:15:39.511Z,4.97
2023-01-12T03:18:51.770Z,4.97
2023-01-12T03:22:01.751Z,4.96
2023-01-12T03:25:14.142Z,4.93
2023-01-12T03:28:24.284Z,4.91
2023-01-12T03:31:31.197Z,4.87
2023-01-12T03:34:39.750Z,4.82
2023-01-12T03:37:52.774Z,4.77
2023-01-12T03:41:06.146Z,4.70
2023-01-12T03:44:18.684Z,4.62
2023-01-12T03:47:29.986Z,4.55
2023-01-12T03:50:45.016Z,4.47
2023-01-12T03:53:53.668Z,4.40
2023-01-12T03:57:04.440Z,4.35
2023-01-12T04:00:14.423Z,4.29
2023-01-12T04:03:21.740Z,4.23
2023-01-12T04:06:28.493Z,4.20
2023-01-12T04:09:35.311Z,4.17
2023-01-12T04:12:42.135Z,4.14
2023-01-12T04:15:51.557Z,4.11
2023-01-12T04:18:58.477Z,4.07
2023-01-12T04:22:22.522Z,4.02
2023-01-12T04:25:29.710Z,3.97
2023-01-12T04:28:36.538Z,3.92
2023-01-12T04:31:43.254Z,3.86
2023-01-12T04:34:50.060Z,3.80
2023-01-12T04:37:56.969Z,3.78
2023-01-12T04:41:04.106Z,3.74
2023-01-12T04:44:10.923Z,3.70
2023-01-12T04:47:17.701Z,3.63
2023-01-12T04:50:24.595Z,3.60
2023-01-12T04:53:31.804Z,3.56
2023-01-12T04:56:38.710Z,3.52
2023-01-12T04:59:45.824Z,3.49
2023-01-12T05:02:56.434Z,3.46
2023-01-12T05:06:04.655Z,3.42
2023-01-12T05:09:30.068Z,3.39
2023-01-12T05:12:36.899Z,3.35
2023-01-12T05:15:43.468Z,3.35
2023-01-12T05:18:50.554Z,3.36
2023-01-12T05:21:57.567Z,3.35
2023-01-12T05:25:04.629Z,3.35
2023-01-12T05:28:11.548Z,3.34
2023-01-12T05:31:19.615Z,3.35
2023-01-12T05:34:26.440Z,3.35
2023-01-12T05:37:33.292Z,3.37
2023-01-12T05:40:40.276Z,3.38
2023-01-12T05:43:54.926Z,3.41
2023-01-12T05:47:01.684Z,3.42
2023-01-12T05:50:09.853Z,3.43
2023-01-12T05:53:16.738Z,3.44
2023-01-12T05:56:26.182Z,3.44
2023-01-12T05:59:33.068Z,3.43
2023-01-12T06:02:39.983Z,3.42
2023-01-12T06:05:53.185Z,3.40
2023-01-12T06:09:00.797Z,3.38
2023-01-12T06:12:27.880Z,3.36
2023-01-12T06:15:36.187Z,3.36
2023-01-12T06:18:43.361Z,3.36
2023-01-12T06:21:50.344Z,3.35
2023-01-12T06:24:57.162Z,3.35
2023-01-12T06:28:06.220Z,3.37
2023-01-12T06:31:15.076Z,3.40
2023-01-12T06:34:22.020Z,3.40
2023-01-12T06:37:28.747Z,3.40
2023-01-12T06:40:36.006Z,3.40
2023-01-12T06:43:42.800Z,3.42
2023-01-12T06:46:49.766Z,3.47
2023-01-12T06:49:56.768Z,3.51
2023-01-12T06:53:07.020Z,3.54
2023-01-12T06:56:13.933Z,3.57
2023-01-12T06:59:20.901Z,3.58
2023-01-12T07:02:27.872Z,3.60
2023-01-12T07:05:34.761Z,3.61
2023-01-12T07:08:42.947Z,3.62
2023-01-12T07:11:49.852Z,3.66
2023-01-12T07:14:59.109Z,3.68
2023-01-12T07:18:06.431Z,3.71
2023-01-12T07:21:16.857Z,3.73
2023-01-12T07:24:23.584Z,3.76
2023-01-12T07:27:30.507Z,3.81
2023-01-12T07:30:37.727Z,3.87
2023-01-12T07:33:44.590Z,3.93
2023-01-12T07:36:52.578Z,4.00
2023-01-12T07:39:59.318Z,4.06
2023-01-12T07:43:08.074Z,4.13
2023-01-12T07:46:16.159Z,4.17
2023-01-12T07:49:23.199Z,4.20
2023-01-12T07:52:29.947Z,4.23
2023-01-12T07:55:39.766Z,4.25
2023-01-12T07:58:47.782Z,4.27
2023-01-12T08:01:55.613Z,4.28
2023-01-12T08:05:02.610Z,4.30
2023-01-12T08:08:09.813Z,4.34
2023-01-12T08:11:19.081Z,4.40
2023-01-12T08:14:33.431Z,4.48
2023-01-12T08:17:45.343Z,4.56
2023-01-12T08:20:54.023Z,4.64
2023-01-12T08:24:03.072Z,4.72
2023-01-12T08:27:11.809Z,4.79
2023-01-12T08:30:21.202Z,4.84
2023-01-12T08:33:28.690Z,4.89
2023-01-12T08:36:38.182Z,4.93
2023-01-12T08:39:46.391Z,4.96
2023-01-12T08:42:53.132Z,4.98
2023-01-12T08:46:07.809Z,5.02
2023-01-12T08:49:16.797Z,5.07
2023-01-12T08:52:25.532Z,5.11
2023-01-12T08:55:32.535Z,5.17
2023-01-12T08:58:39.807Z,5.25
2023-01-12T09:01:46.767Z,5.33
2023-01-12T09:04:53.883Z,5.39
2023-01-12T09:08:00.785Z,5.44
2023-01-12T09:11:11.287Z,5.51
2023-01-12T09:14:18.999Z,5.55
2023-01-12T09:17:26.873Z,5.55
2023-01-12T09:20:34.291Z,5.53
2023-01-12T09:23:41.492Z,5.47
2023-01-12T09:26:49.024Z,5.44
2023-01-12T09:29:56.450Z,5.40
2023-01-12T09:33:03.216Z,5.39
2023-01-12T09:36:13.355Z,5.42
2023-01-12T09:39:27.739Z,5.47
2023-01-12T09:42:53.415Z,5.53
2023-01-12T09:46:17.875Z,5.63
2023-01-12T09:49:28.193Z,5.77
2023-01-12T09:52:39.780Z,5.89
2023-01-12T09:55:57.885Z,5.97
2023-01-12T09:59:24.822Z,6.03
2023-01-12T10:02:37.236Z,6.18
2023-01-12T10:05:50.116Z,6.29
2023-01-12T10:09:01.844Z,6.33
2023-01-12T10:12:20.403Z,6.38
2023-01-12T10:15:43.883Z,6.46
2023-01-12T10:18:55.480Z,6.53
2023-01-12T10:22:10.997Z,6.59
2023-01-12T10:25:24.360Z,6.67
2023-01-12T10:28:34.461Z,6.79
2023-01-12T10:31:41.411Z,6.94
2023-01-12T10:34:54.779Z,7.12
2023-01-12T10:38:01.633Z,7.32
2023-01-12T10:41:17.157Z,7.47
2023-01-12T10:44:24.034Z,7.63
2023-01-12T10:47:36.443Z,7.79
2023-01-12T10:50:44.126Z,7.94
2023-01-12T10:53:53.314Z,8.00
2023-01-12T10:57:04.432Z,7.98
2023-01-12T11:00:25.368Z,7.92
2023-01-12T11:03:37.526Z,7.91
2023-01-12T11:06:56.274Z,7.98
2023-01-12T11:10:28.090Z,8.12
2023-01-12T11:13:37.686Z,8.22
2023-01-12T11:16:50.965Z,8.21
2023-01-12T11:20:00.011Z,8.16
2023-01-12T11:23:12.063Z,8.07
2023-01-12T11:26:23.859Z,7.98
2023-01-12T11:29:39.771Z,7.92
2023-01-12T11:32:50.300Z,7.88
2023-01-12T11:36:00.848Z,7.87
2023-01-12T11:39:14.128Z,7.88
2023-01-12T11:42:44.621Z,7.98
2023-01-12T11:45:59.127Z,8.11
2023-01-12T11:49:13.031Z,8.19
2023-01-12T11:52:20.549Z,8.29
2023-01-12T11:55:41.886Z,8.43
2023-01-12T11:58:58.760Z,8.62
2023-01-12T12:02:16.284Z,8.82
2023-01-12T12:05:41.168Z,9.09
2023-01-12T12:08:57.021Z,9.31
2023-01-12T12:12:10.491Z,9.36
2023-01-12T12:15:29.297Z,9.47
2023-01-12T12:18:51.231Z,9.61
2023-01-12T12:22:11.086Z,9.65
2023-01-12T12:25:29.503Z,9.63
2023-01-12T12:29:04.304Z,9.62
2023-01-12T12:32:20.199Z,9.60
2023-01-12T12:35:42.189Z,9.63
2023-01-12T12:39:13.951Z,9.64
2023-01-12T12:42:55.699Z,9.57
2023-01-12T12:46:11.195Z,9.52
2023-01-12T12:49:23.731Z,9.48
2023-01-12T12:52:32.918Z,9.44
2023-01-12T12:55:38.530Z,9.41
2023-01-12T12:58:50.974Z,9.37
2023-01-12T13:02:03.045Z,9.34
2023-01-12T13:05:11.775Z,9.33
2023-01-12T13:08:26.022Z,9.31
2023-01-12T13:11:51.902Z,9.31
2023-01-12T13:15:24.688Z,9.29
2023-01-12T13:19:04.635Z,9.25
2023-01-12T13:22:44.130Z,9.19
2023-01-12T13:26:00.187Z,9.12
2023-01-12T13:29:40.573Z,9.11
2023-01-12T13:32:58.601Z,9.08
2023-01-12T13:36:12.064Z,9.08
2023-01-12T13:39:19.610Z,9.10
2023-01-12T13:42:46.307Z,9.08
2023-01-12T13:45:57.045Z,9.05
2023-01-12T13:49:20.313Z,9.04
2023-01-12T13:52:32.289Z,9.00
2023-01-12T13:55:39.070Z,8.90
2023-01-12T13:58:46.691Z,8.84
2023-01-12T14:01:55.808Z,8.81
2023-01-12T14:05:23.380Z,8.79
2023-01-12T14:08:54.943Z,8.78
2023-01-12T14:12:19.644Z,8.77
2023-01-12T14:15:52.570Z,8.76
2023-01-12T14:18:59.490Z,8.74
2023-01-12T14:22:06.311Z,8.69
2023-01-12T14:25:22.077Z,8.64
2023-01-12T14:28:29.357Z,8.59
2023-01-12T14:31:40.400Z,8.53
2023-01-12T14:34:54.270Z,8.46
2023-01-12T14:38:02.707Z,8.42
2023-01-12T14:41:31.808Z,8.39
2023-01-12T14:44:58.530Z,8.37
2023-01-12T14:48:23.236Z,8.34
2023-01-12T14:51:41.633Z,8.32
2023-01-12T14:54:48.649Z,8.31
2023-01-12T14:57:58.302Z,8.27
2023-01-12T15:01:05.491Z,8.25
2023-01-12T15:04:22.068Z,8.22
2023-01-12T15:07:32.653Z,8.20
2023-01-12T15:10:43.554Z,8.18
2023-01-12T15:13:59.170Z,8.15
2023-01-12T15:17:24.331Z,8.10
2023-01-12T15:20:55.263Z,8.08
2023-01-12T15:24:27.829Z,8.04
2023-01-12T15:27:35.307Z,8.01
2023-01-12T15:30:42.092Z,7.96
2023-01-12T15:33:49.175Z,7.94
2023-01-12T15:36:55.880Z,7.92
2023-01-12T15:40:03.006Z,7.92
2023-01-12T15:43:14.470Z,7.89
2023-01-12T15:46:21.747Z,7.88
2023-01-12T15:49:28.760Z,7.86
2023-01-12T15:52:35.635Z,7.86
2023-01-12T15:55:42.807Z,7.84
2023-01-12T15:58:49.750Z,7.82
2023-01-12T16:01:56.882Z,7.82
2023-01-12T16:05:05.444Z,7.81
2023-01-12T16:08:12.321Z,7.79
2023-01-12T16:11:24.522Z,7.75
2023-01-12T16:14:31.470Z,7.73
2023-01-12T16:17:38.125Z,7.68
2023-01-12T16:20:45.079Z,7.65
2023-01-12T16:23:51.970Z,7.60
2023-01-12T16:26:59.095Z,7.54
2023-01-12T16:30:07.970Z,7.51
2023-01-12T16:33:16.480Z,7.49
2023-01-12T16:36:23.314Z,7.46
2023-01-12T16:39:30.179Z,7.43
2023-01-12T16:42:37.080Z,7.42
2023-01-12T16:45:45.363Z,7.41
2023-01-12T16:48:55.519Z,7.41
2023-01-12T16:52:02.867Z,7.41
2023-01-12T16:55:10.479Z,7.41
2023-01-12T16:58:17.498Z,7.40
2023-01-12T17:01:26.311Z,7.42
2023-01-12T17:04:33.483Z,7.44
2023-01-12T17:07:40.421Z,7.45
2023-01-12T17:10:47.412Z,7.46
2023-01-12T17:13:55.438Z,7.46
2023-01-12T17:17:06.690Z,7.45
2023-01-12T17:20:15.315Z,7.46
2023-01-12T17:23:22.249Z,7.47
2023-01-12T17:26:31.471Z,7.47
2023-01-12T17:29:38.575Z,7.45
2023-01-12T17:32:45.364Z,7.45
2023-01-12T17:35:52.128Z,7.45
2023-01-12T17:39:00.893Z,7.46
2023-01-12T17:42:25.470Z,7.46
2023-01-12T17:45:33.643Z,7.45
2023-01-12T17:48:40.831Z,7.45
2023-01-12T17:51:47.945Z,7.46
2023-01-12T17:54:54.789Z,7.46
2023-01-12T17:58:01.614Z,7.47
2023-01-12T18:01:14.886Z,7.48
2023-01-12T18:04:21.968Z,7.47
2023-01-12T18:07:31.196Z,7.47
2023-01-12T18:10:38.325Z,7.48
2023-01-12T18:13:45.967Z,7.48
2023-01-12T18:16:52.878Z,7.47
2023-01-12T18:20:00.339Z,7.45
2023-01-12T18:23:07.299Z,7.43
2023-01-12T18:26:16.708Z,7.43
2023-01-12T18:29:23.536Z,7.44
2023-01-12T18:32:30.366Z,7.44
2023-01-12T18:35:39.364Z,7.42
2023-01-12T18:38:46.362Z,7.40
2023-01-12T18:42:10.783Z,7.40
2023-01-12T18:45:18.310Z,7.39
2023-01-12T18:48:26.442Z,7.39
2023-01-12T18:51:50.892Z,7.38
2023-01-12T18:54:58.834Z,7.36
2023-01-12T18:58:05.677Z,7.36
2023-01-12T19:01:19.341Z,7.35
2023-01-12T19:04:40.746Z,7.34
2023-01-12T19:08:05.186Z,7.33
2023-01-12T19:11:13.529Z,7.32
2023-01-12T19:14:37.611Z,7.33
2023-01-12T19:17:47.030Z,7.34
2023-01-12T19:21:13.863Z,7.35
2023-01-12T19:24:40.996Z,7.35
2023-01-12T19:28:05.754Z,7.34
2023-01-12T19:31:15.338Z,7.34
2023-01-12T19:34:24.741Z,7.35
2023-01-12T19:37:33.956Z,7.36
2023-01-12T19:40:46.339Z,7.35
2023-01-12T19:43:53.150Z,7.32
2023-01-12T19:47:00.105Z,7.29
2023-01-12T19:50:08.803Z,7.28
2023-01-12T19:53:18.612Z,7.29
2023-01-12T19:56:25.474Z,7.29
2023-01-12T19:59:32.203Z,7.28
2023-01-12T20:02:38.974Z,7.24
2023-01-12T20:05:47.557Z,7.21
2023-01-12T20:08:54.583Z,7.18
2023-01-12T20:12:01.303Z,7.17
2023-01-12T20:15:11.855Z,7.18
2023-01-12T20:18:18.971Z,7.20
2023-01-12T20:21:25.854Z,7.21
2023-01-12T20:24:32.873Z,7.24
2023-01-12T20:27:40.233Z,7.26
2023-01-12T20:30:47.405Z,7.28
2023-01-12T20:33:54.297Z,7.32
2023-01-12T20:37:01.063Z,7.35
2023-01-12T20:40:10.116Z,7.37
2023-01-12T20:43:17.209Z,7.38
2023-01-12T20:46:24.257Z,7.38
2023-01-12T20:49:31.039Z,7.38
2023-01-12T20:52:38.024Z,7.40
2023-01-12T20:55:47.034Z,7.42
2023-01-12T20:58:54.422Z,7.44
2023-01-12T21:02:01.347Z,7.46
2023-01-12T21:05:09.856Z,7.47
2023-01-12T21:08:18.012Z,7.47
2023-01-12T21:11:24.799Z,7.48
2023-01-12T21:14:31.902Z,7.48
2023-01-12T21:17:39.267Z,7.49
2023-01-12T21:20:47.007Z,7.49
2023-01-12T21:23:53.789Z,7.50
2023-01-12T21:27:00.779Z,7.50
2023-01-12T21:30:10.187Z,7.49
2023-01-12T21:33:17.782Z,7.49
2023-01-12T21:36:24.782Z,7.49
2023-01-12T21:39:31.519Z,7.50
2023-01-12T21:42:56.174Z,7.51
2023-01-12T21:46:09.937Z,7.53
2023-01-12T21:49:17.264Z,7.54
2023-01-12T21:52:24.105Z,7.56
2023-01-12T21:55:32.055Z,7.58
2023-01-12T21:58:39.878Z,7.60
2023-01-12T22:01:46.748Z,7.62
2023-01-12T22:04:53.740Z,7.65
2023-01-12T22:08:00.434Z,7.66
2023-01-12T22:11:12.517Z,7.65
2023-01-12T22:14:19.218Z,7.66
2023-01-12T22:17:25.969Z,7.66
2023-01-12T22:20:33.842Z,7.67
2023-01-12T22:23:41.219Z,7.67
2023-01-12T22:26:47.921Z,7.67
2023-01-12T22:29:55.122Z,7.67
2023-01-12T22:33:01.719Z,7.66
2023-01-12T22:36:10.076Z,7.64
2023-01-12T22:39:17.143Z,7.62
2023-01-12T22:42:45.213Z,7.59
2023-01-12T22:45:58.086Z,7.53
2023-01-12T22:49:05.217Z,7.48
2023-01-12T22:52:12.018Z,7.43
2023-01-12T22:55:19.066Z,7.37
2023-01-12T22:58:25.825Z,7.30
2023-01-12T23:01:33.529Z,7.26
2023-01-12T23:04:40.438Z,7.21
2023-01-12T23:07:47.170Z,7.17
2023-01-12T23:11:02.445Z,7.13
2023-01-12T23:14:09.364Z,7.09
2023-01-12T23:17:16.160Z,7.07
2023-01-12T23:20:26.364Z,7.04
2023-01-12T23:23:33.350Z,7.03
2023-01-12T23:26:40.118Z,7.02
2023-01-12T23:29:47.624Z,7.01
2023-01-12T23:32:54.454Z,7.00
2023-01-12T23:36:05.270Z,7.00
2023-01-12T23:39:13.637Z,6.97
2023-01-12T23:42:20.638Z,6.94
2023-01-12T23:45:27.783Z,6.92
2023-01-12T23:48:34.741Z,6.91
2023-01-12T23:51:41.436Z,6.89
2023-01-12T23:54:48.517Z,6.87
2023-01-12T23:57:55.432Z,6.86
